Home > Products > Valid Products > MTR

000
SAUS44 KSHV 301014
MTRAQV
SPECI KAQV 301013Z AUTO 00000KT 9SM SCT005 OVC010 24/23 A2994 RMK
AO2 T02390228





000
SAUS44 KSHV 301009
MTRBKB
SPECI KBKB 301007Z AUTO 00000KT 6SM -RA BR SCT008 BKN026 OVC070
24/23 A2993 RMK AO2 P0002 T02440228





000
SAUS44 KSHV 301006
MTRAQV
SPECI KAQV 301004Z AUTO 00000KT 8SM BKN004 OVC012 24/23 A2994 RMK
AO2 CIG 003V007 T02390233





000
SAUS44 KSHV 301000 COR
MTRPOE
METAR KPOE 300955Z AUTO 15008KT 10SM -RA SCT007 BKN027 OVC080 23/23
A2995 RMK AO2 RAE02B31 CIG 022V035 SLP142 P0001 T02330228





000
SAUS44 KSHV 300957
MTRAQV
METAR KAQV 300956Z AUTO 12003KT 8SM SCT004 BKN008 OVC012 24/23 A2995
RMK AO2 RAE38 CIG 006V010 SLP137 P0000 T02390233





000
SAUS44 KSHV 300956
MTRBKB
METAR KBKB 300954Z AUTO 00000KT 5SM RA BR FEW012 BKN075 OVC100 24/23
A2994 RMK AO2 RAE01B25 SLP162 P0002 T02440228





000
SAUS44 KSHV 300956
MTRPOE
METAR KPOE 300955Z AUTO 15008KT 10SM -RA SCT007 BKN027 OVC080 23/23
A2995 RMK AO2 RAE02B31 CIG 022V035 SLP142 P0001 T02330228





000
SAUS44 KSHV 300951
MTRBKB
SPECI KBKB 300950Z AUTO 00000KT 8SM -RA FEW006 BKN075 OVC100 24/23
A2994 RMK AO2 RAE01B25 P0001





000
SAUS44 KSHV 300944
MTRPOE
SPECI KPOE 300943Z AUTO 13006KT 10SM -RA SCT005 BKN027 OVC100 23/23
A2995 RMK AO2 RAE02B31 CIG 022V035 P0000





000
SAUS44 KSHV 300923
MTRBKB
SPECI KBKB 300922Z AUTO 00000KT 10SM FEW010 BKN031 OVC110 24/23
A2994 RMK AO2 RAE01 P0000 T02440228





000
SAUS44 KSHV 300920
MTRAQV
SPECI KAQV 300919Z AUTO 00000KT 9SM -RA BKN006 BKN016 OVC100 24/23
A2995 RMK AO2 CIG 003V013 P0000 T02390228





000
SAUS44 KSHV 300915
MTRPOE
SPECI KPOE 300914Z AUTO 11005KT 10SM FEW005 BKN075 OVC100 23/23
A2995 RMK AO2 RAE02 P0000





000
SAUS44 KSHV 300907
MTRBKB
SPECI KBKB 300906Z AUTO 00000KT 10SM FEW005 BKN028 OVC100 24/23
A2994 RMK AO2 RAE01 P0000 T02440228





000
SAUS44 KSHV 300858
MTRAQV
METAR KAQV 300856Z AUTO VRB03KT 9SM -RA OVC004 24/23 A2996 RMK AO2
RAE03B34 SLP140 P0000 60000 T02390233 56002





000
SAUS44 KSHV 300856
MTRPOE
METAR KPOE 300855Z AUTO 12007KT 10SM -RA SCT014 BKN085 OVC110 23/23
A2995 RMK AO2 RAB36 SLP143 P0001 60001 T02330228 58005





000
SAUS44 KSHV 300855
MTRPOE
SPECI KPOE 300853Z AUTO 12007KT 10SM -RA SCT012 BKN080 OVC100 23/23
A2995 RMK AO2 RAB36 P0001





000
SAUS44 KSHV 300855
MTRBKB
METAR KBKB 300854Z AUTO 00000KT 10SM -RA FEW005 BKN095 OVC110 24/23
A2994 RMK AO2 RAB24E34B50 SLP164 P0000 60002 T02440228 58003





000
SAUS44 KSHV 300853
MTRBKB
SPECI KBKB 300851Z AUTO 00000KT 10SM -RA FEW006 BKN100 OVC110 24/23
A2994 RMK AO2 RAB24E34B50 P0000





000
SAUS44 KSHV 300847
MTRPOE
SPECI KPOE 300846Z AUTO 13006KT 10SM -RA SCT005 BKN014 OVC075 23/23
A2996 RMK AO2 RAB36 P0001





000
SAUS44 KSHV 300841
MTRBKB
SPECI KBKB 300840Z AUTO 00000KT 10SM SCT006 BKN019 OVC110 24/23
A2994 RMK AO2 RAB24E34 P0000 T02440228





000
SAUS44 KSHV 300833
MTRAQV
SPECI KAQV 300832Z AUTO VRB03KT 10SM OVC004 24/23 A2996 RMK AO2
RAE03 CIG 003V008 P0000 T02390228





000
SAUS44 KSHV 300826
MTRPOE
SPECI KPOE 300824Z AUTO 13007KT 10SM OVC005 24/23 A2996 RMK AO2 CIG
005V012





000
SAUS44 KSHV 300820
MTRBKB
SPECI KBKB 300819Z AUTO 00000KT 10SM BKN005 OVC050 24/23 A2995 RMK
AO2 CIG 003V011 T02440228





000
SAUS44 KSHV 300815
MTRPOE
SPECI KPOE 300814Z AUTO 13006KT 10SM OVC007 24/23 A2996 RMK AO2 CIG
005V011





000
SAUS44 KSHV 300757
MTRAQV
METAR KAQV 300756Z AUTO 00000KT 9SM -RA OVC008 24/23 A2996 RMK AO2
SLP140 P0000 T02390228





000
SAUS44 KSHV 300756
MTRPOE
METAR KPOE 300755Z AUTO 12006KT 10SM OVC005 24/23 A2996 RMK AO2
SLP146 T02390228





000
SAUS44 KSHV 300755
MTRBKB
METAR KBKB 300754Z AUTO 00000KT 10SM OVC004 24/23 A2995 RMK AO2
RAE14 CIG 003V008 SLP167 P0001 T02440228





000
SAUS44 KSHV 300755
MTRAQV
SPECI KAQV 300754Z AUTO 00000KT 9SM -RA OVC008 24/23 A2996 RMK AO2
P0000





000
SAUS44 KSHV 300745 COR
MTRAQV
SPECI KAQV 300740Z AUTO 00000KT 10SM -RA BKN010 BKN080 OVC095 24/23
A2996 RMK AO2 P0000 T02390233





000
SAUS44 KSHV 300741
MTRAQV
SPECI KAQV 300740Z AUTO 00000KT 10SM -RA BKN010 BKN080 OVC095 24/23
A2996 RMK AO2 P0000 T02390233





000
SAUS44 KSHV 300731
MTRPOE
SPECI KPOE 300730Z AUTO 12005KT 10SM OVC005 24/23 A2996 RMK AO2





000
SAUS44 KSHV 300705
MTRAQV
SPECI KAQV 300704Z AUTO VRB03KT 10SM -RA SCT010 OVC100 24/23 A2996
RMK AO2 P0000 T02390228





000
SAUS44 KSHV 300705
MTRBKB
SPECI KBKB 300704Z AUTO 00000KT 7SM -RA BKN009 OVC050 24/23 A2995
RMK AO2 P0001 T02440228





000
SAUS44 KSHV 300657
MTRAQV
METAR KAQV 300656Z AUTO 13003KT 10SM -RA BKN010 BKN048 OVC100 24/23
A2996 RMK AO2 RAB00E15B50 SLP142 P0000 T02390228





000
SAUS44 KSHV 300656
MTRPOE
METAR KPOE 300655Z AUTO 11006KT 10SM OVC007 24/23 A2996 RMK AO2 CIG
005V011 SLP146 T02390228





000
SAUS44 KSHV 300655
MTRBKB
METAR KBKB 300654Z AUTO 00000KT 8SM -RA BKN010 OVC070 24/22 A2995
RMK AO2 RAB48 CIG 006V012 SLP166 P0001 T02440222





000
SAUS44 KSHV 300651
MTRBKB
SPECI KBKB 300650Z AUTO 00000KT 10SM -RA BKN010 BKN060 OVC075 24/22
A2995 RMK AO2 RAB48 P0000





000
SAUS44 KSHV 300611
MTRPOE
SPECI KPOE 300610Z AUTO 14007KT 10SM BKN007 BKN090 OVC110 24/23
A2997 RMK AO2 CIG 004V011





000
SAUS44 KSHV 300603
MTRPOE
SPECI KPOE 300602Z AUTO 14007KT 10SM SCT007 BKN070 OVC110 24/23
A2997 RMK AO2





000
SAUS44 KSHV 300557
MTRPOE
METAR KPOE 300555Z AUTO 13008KT 10SM BKN005 OVC100 24/23 A2997 RMK
AO2 CIG 004V008 SLP148 60001 T02390233 10250 20239 51006





000
SAUS44 KSHV 300557
MTRAQV
METAR KAQV 300556Z AUTO 13003KT 10SM CLR 24/23 A2997 RMK AO2 RAE53
SLP144 P0000 60000 T02390228 10261 20239 403390228 51006





000
SAUS44 KSHV 300555
MTRBKB
METAR KBKB 300554Z AUTO 00000KT 10SM BKN100 BKN120 24/23 A2995 RMK
AO2 RAE0458 SLP168 P0000 60011 T02440228 10272 20244 403390222 51008





000
SAUS44 KSHV 300532
MTRPOE
SPECI KPOE 300531Z AUTO 13006KT 10SM BKN005 OVC110 24/23 A2997 RMK
AO2 CIG 004V008





000
SAUS44 KSHV 300520
MTRPOE
SPECI KPOE 300519Z AUTO 14005KT 10SM SCT007 OVC110 24/23 A2997 RMK
AO2





000
SAUS44 KSHV 300457
MTRAQV
METAR KAQV 300456Z AUTO 00000KT 10SM -RA CLR 24/23 A2996 RMK AO2
RAB06E16B36 SLP143 P0000 T02440233





000
SAUS44 KSHV 300457
MTRPOE
METAR KPOE 300455Z AUTO 13005KT 10SM SCT110 24/23 A2997 RMK AO2
RAE33 SLP147 P0000 T02390233 403280222





000
SAUS44 KSHV 300456
MTRBKB
METAR KBKB 300454Z AUTO 00000KT 10SM -RA FEW110 24/23 A2995 RMK AO2
RAB0356 SLP167 P0001 T02440228





000
SAUS44 KSHV 300357
MTRAQV
METAR KAQV 300356Z AUTO 16003KT 10SM FEW120 25/23 A2995 RMK AO2
RAB0257E12 SLP139 P0000 T02500233





000
SAUS44 KSHV 300356
MTRBKB
METAR KBKB 300354Z AUTO 00000KT 10SM SCT110 25/23 A2994 RMK AO2
RAB11E38 SLP163 P0000 T02500228





000
SAUS44 KSHV 300356
MTRPOE
METAR KPOE 300355Z AUTO 14006KT 10SM -RA CLR 24/23 A2996 RMK AO2
RAB30 SLP144 P0000 T02440233





000
SAUS44 KSHV 300258
MTRAQV
METAR KAQV 300256Z AUTO 00000KT 10SM SCT095 SCT110 26/23 A2995 RMK
AO2 SLP138 T02560233 53009





000
SAUS44 KSHV 300256
MTRPOE
METAR KPOE 300255Z AUTO 15003KT 10SM CLR 24/24 A2995 RMK AO2
RAB24E39 SLP142 P0000 60001 T02440239 53007





000
SAUS44 KSHV 300255
MTRBKB
METAR KBKB 300254Z AUTO 00000KT 10SM FEW120 26/23 A2993 RMK AO2
SLP159 60010 T02560233 53007





000
SAUS44 KSHV 300158
MTRAQV
METAR KAQV 300156Z AUTO 00000KT 10SM FEW027 FEW040 26/23 A2993 RMK
AO2 SLP132 T02610233





000
SAUS44 KSHV 300156
MTRPOE
METAR KPOE 300155Z AUTO 11005KT 10SM SCT110 24/24 A2993 RMK AO2
SLP135 T02440239





000
SAUS44 KSHV 300156
MTRBKB
METAR KBKB 300154Z AUTO 00000KT 10SM SCT120 26/24 A2991 RMK AO2
RAE17 SLP154 P0000 T02560239





000
SAUS44 KSHV 300057
MTRAQV
METAR KAQV 300056Z AUTO 00000KT 10SM FEW024 26/23 A2992 RMK AO2
TSE08 SLP129 T02610233





000
SAUS44 KSHV 300056
MTRBKB
METAR KBKB 300054Z AUTO 00000KT 10SM -RA FEW120 25/23 A2991 RMK AO2
SLP155 P0010 T02500233





000
SAUS44 KSHV 300056
MTRPOE
METAR KPOE 300055Z AUTO 11006KT 10SM CLR 24/23 A2993 RMK AO2 RAE41
SLP134 P0001 T02440233





000
SAUS44 KSHV 300028
MTRBKB
SPECI KBKB 300026Z AUTO 00000KT 3SM -RA BR FEW022 SCT043 BKN110
25/23 A2991 RMK AO2 P0009 T02500228





000
SAUS44 KSHV 300019
MTRBKB
SPECI KBKB 300018Z AUTO 1 3/4SM +RA BR FEW022 SCT034 BKN110 26/23
A2991 RMK AO2 P0007 T02560233





000
SAUS44 KSHV 300013
MTRAQV
SPECI KAQV 300011Z AUTO 00000KT 10SM SCT026 BKN033 BKN065 26/23
A2992 RMK AO2 TSE08 T02610228





000
SAUS44 KSHV 292358
MTRAQV
METAR KAQV 292356Z AUTO 00000KT 10SM TS FEW016 BKN027 OVC070 26/23
A2992 RMK AO2 RAB12E45 TSB39 SLP130 P0000 60000 T02610228 10339
20261 53006





000
SAUS44 KSHV 292357
MTRPOE
METAR KPOE 292355Z AUTO 17004KT 10SM -RA CLR 25/23 A2993 RMK AO2
RAE04B28 SLP135 P0000 60001 T02500228 10328 20250 53003





000
SAUS44 KSHV 292356
MTRBKB
METAR KBKB 292354Z AUTO 00000KT 10SM -RA SCT110 28/23 A2991 RMK AO2
RAE04B27 TSE23 SLP152 P0000 60000 T02780228 10339 20278 53002





000
SAUS44 KSHV 292344 COR
MTRAQV
SPECI KAQV 292339Z AUTO 08006KT 10SM -TSRA FEW016 BKN027 OVC080
26/23 A2992 RMK AO2 RAB12 TSB39 P0000 T02610228





000
SAUS44 KSHV 292341
MTRAQV
SPECI KAQV 292339Z AUTO 08006KT 10SM -TSRA FEW016 BKN027 OVC080
26/23 A2992 RMK AO2 RAB12 TSB39 P0000 T02610228





000
SAUS44 KSHV 292327
MTRBKB
SPECI KBKB 292326Z AUTO 00000KT 10SM FEW037 SCT090 SCT110 28/22
A2990 RMK AO2 RAE04 TSE23 P0000 T02830222





000
SAUS44 KSHV 292318
MTRBKB
SPECI KBKB 292317Z AUTO 17003KT 10SM TS FEW110 29/22 A2990 RMK AO2
RAE04 P0000 T02890222





000
SAUS44 KSHV 292258
MTRAQV
METAR KAQV 292256Z AUTO 00000KT 10SM FEW095 SCT120 28/24 A2990 RMK
AO2 SLP121 T02830239





000
SAUS44 KSHV 292256
MTRPOE
METAR KPOE 292255Z AUTO 17006KT 10SM -RA FEW110 27/22 A2992 RMK AO2
RAB39 SLP130 P0000 T02670222





000
SAUS44 KSHV 292255
MTRBKB
METAR KBKB 292254Z AUTO 00000KT 10SM -RA FEW028 SCT110 29/22 A2989
RMK AO2 RAB48 SLP148 P0000 T02890217





000
SAUS44 KSHV 292158
MTRAQV
METAR KAQV 292156Z AUTO VRB03KT 10SM CLR 29/23 A2988 RMK AO2 SLP115
T02940228





000
SAUS44 KSHV 292157
MTRPOE
METAR KPOE 292155Z AUTO 14007KT 10SM FEW033 28/24 A2989 RMK AO2
RAE38 SLP121 P0001 T02780239





000
SAUS44 KSHV 292156
MTRBKB
METAR KBKB 292154Z AUTO 00000KT 10SM FEW025 29/23 A2987 RMK AO2
RAE12 SLP139 P0000 T02940233





000
SAUS44 KSHV 292059
MTRAQV
METAR KAQV 292056Z AUTO VRB06G15KT 10SM FEW048 31/22 A2990 RMK AO2
SLP122 T03060222 56013





000
SAUS44 KSHV 292056
MTRPOE
METAR KPOE 292055Z AUTO 15006KT 10SM -RA SCT110 28/24 A2992 RMK AO2
RAB27 SLP132 P0000 60000 T02780244 56009





000
SAUS44 KSHV 292055
MTRBKB
METAR KBKB 292054Z AUTO VRB03KT 10SM -RA FEW060 SCT080 BKN100 29/24
A2990 RMK AO2 RAB19 SLP150 P0000 60000 T02940239 56007





000
SAUS44 KSHV 291957
MTRPOE
METAR KPOE 291955Z AUTO 14009KT 10SM FEW120 30/23 A2993 RMK AO2
SLP134 T03000228





000
SAUS44 KSHV 291957
MTRAQV
METAR KAQV 291956Z AUTO 17007KT 10SM SCT046 32/21 A2991 RMK AO2
SLP123 T03220206





000
SAUS44 KSHV 291955
MTRBKB
METAR KBKB 291954Z AUTO 00000KT 10SM CLR 31/22 A2991 RMK AO2 SLP153
T03110222





000
SAUS44 KSHV 291857
MTRAQV
METAR KAQV 291856Z AUTO 13003KT 10SM FEW050 32/21 A2991 RMK AO2
SLP126 T03170211





000
SAUS44 KSHV 291856
MTRPOE
METAR KPOE 291855Z AUTO 11007KT 10SM CLR 32/22 A2992 RMK AO2 SLP131
T03220217





000
SAUS44 KSHV 291855
MTRBKB
METAR KBKB 291854Z AUTO VRB03KT 10SM FEW038 FEW055 34/22 A2990 RMK
AO2 SLP148 T03390217





000
SAUS44 KSHV 291758
MTRAQV
METAR KAQV 291756Z AUTO VRB04KT 10SM CLR 33/22 A2994 RMK AO2 SLP135
6//// T03280222 10328 20228 50000





000
SAUS44 KSHV 291756
MTRPOE
METAR KPOE 291755Z AUTO 13010KT 10SM BKN034 BKN043 30/22 A2995 RMK
AO2 SLP141 T03000222 10311 20239 50000





000
SAUS44 KSHV 291755
MTRBKB
METAR KBKB 291754Z AUTO VRB05KT 10SM SCT038 SCT050 32/22 A2992 RMK
AO2 SLP157 T03170217 10328 20228 58003





000
SAUS44 KSHV 291659
MTRAQV
METAR KAQV 291656Z AUTO VRB04KT 10SM FEW029 SCT037 31/23 A2995 RMK
AO2 SLP139 T03060228





000
SAUS44 KSHV 291656
MTRPOE
METAR KPOE 291655Z AUTO 18005KT 10SM FEW029 30/23 A2995 RMK AO2
SLP143 T03000228





000
SAUS44 KSHV 291655
MTRBKB
METAR KBKB 291654Z AUTO VRB03KT 10SM FEW028 SCT036 32/22 A2992 RMK
AO2 SLP158 T03170222





000
SAUS44 KSHV 291557
MTRAQV
METAR KAQV 291556Z AUTO 10SM FEW026 BKN100 29/23 A2997 RMK AO2
SLP144 T02940228 PNO $





000
SAUS44 KSHV 291556
MTRBKB
METAR KBKB 291554Z AUTO VRB05KT 10SM SCT026 BKN110 31/22 A2995 RMK
AO2 SLP166 T03110222





000
SAUS44 KSHV 291556
MTRPOE
METAR KPOE 291555Z AUTO 14007KT 10SM FEW023 SCT110 30/23 A2997 RMK
AO2 SLP148 T03000228





000
SAUS44 KSHV 291458
MTRAQV
METAR KAQV 291456Z AUTO VRB04KT 10SM CLR 29/22 A2994 RMK AO2 SLP135
6//// T02890222 PNO $





000
SAUS44 KSHV 291457
MTRPOE
METAR KPOE 291455Z AUTO 14008KT 10SM FEW017 BKN100 28/23 A2995 RMK
AO2 SLP141 T02780228 53001





000
SAUS44 KSHV 291456
MTRBKB
METAR KBKB 291454Z AUTO VRB05KT 10SM OVC100 29/23 A2993 RMK AO2
SLP160 T02890228 53004





000
SAUS44 KSHV 291357
MTRAQV
METAR KAQV 291356Z AUTO 00000KT 10SM CLR 27/23 A2993 RMK AO2 SLP130
T02720233 PNO $





000
SAUS44 KSHV 291356
MTRBKB
METAR KBKB 291354Z AUTO 00000KT 10SM CLR 28/23 A2991 RMK AO2 SLP155
T02780228





000
SAUS44 KSHV 291356
MTRPOE
METAR KPOE 291355Z AUTO 13006KT 10SM CLR 27/23 A2994 RMK AO2 SLP138
T02670228





000
SAUS44 KSHV 291257
MTRAQV
METAR KAQV 291256Z AUTO 00000KT 10SM CLR 25/23 A2993 RMK AO2 SLP133
T02500233 PNO $





000
SAUS44 KSHV 291256
MTRPOE
METAR KPOE 291255Z AUTO 09004KT 10SM CLR 25/23 A2993 RMK AO2 SLP136
T02500228





000
SAUS44 KSHV 291256
MTRBKB
METAR KBKB 291254Z AUTO 00000KT 7SM CLR 24/22 A2992 RMK AO2 SLP156
T02390222





000
SAUS44 KSHV 291157
MTRAQV
METAR KAQV 291156Z AUTO 00000KT 5SM BR CLR 23/22 A2994 RMK AO2
SLP135 6//// 7//// T02280217 10239 20228 53006 PNO





000
SAUS44 KSHV 291156
MTRPOE
METAR KPOE 291155Z AUTO 11004KT 10SM CLR 24/23 A2994 RMK AO2 SLP140
70014 T02390228 10244 20222 53005





000
SAUS44 KSHV 291155
MTRBKB
METAR KBKB 291154Z AUTO 00000KT 4SM BR CLR 23/21 A2992 RMK AO2
SLP156 70002 T02280211 10244 20222 53003





000
SAUS44 KSHV 291117
MTRBKB
SPECI KBKB 291116Z AUTO 00000KT 4SM BR CLR 23/21 A2992 RMK AO2
T02280211





000
SAUS44 KSHV 291105
MTRBKB
SPECI KBKB 291104Z AUTO 00000KT 2SM BR CLR 23/21 A2991 RMK AO2
T02280211





000
SAUS44 KSHV 291058
MTRAQV
METAR KAQV 291056Z AUTO 00000KT 7SM CLR 23/22 A2992 RMK AO2 SLP129
T02330222 PNO





000
SAUS44 KSHV 291056
MTRPOE
METAR KPOE 291055Z AUTO 11005KT 10SM CLR 24/23 A2993 RMK AO2 SLP135
T02390228





000
SAUS44 KSHV 291055
MTRBKB
METAR KBKB 291054Z AUTO 00000KT 3SM BR CLR 23/22 A2992 RMK AO2
SLP156 T02280217





000
SAUS44 KSHV 290958
MTRAQV
METAR KAQV 290956Z AUTO 00000KT 6SM BR CLR 23/22 A2992 RMK AO2
SLP127 T02280222 PNO





000
SAUS44 KSHV 290956
MTRBKB
METAR KBKB 290954Z AUTO 00000KT 8SM CLR 23/22 A2991 RMK AO2 SLP153
T02330217





000
SAUS44 KSHV 290956
MTRPOE
METAR KPOE 290955Z AUTO 00000KT 10SM CLR 24/23 A2993 RMK AO2 SLP134
T02390228





000
SAUS44 KSHV 290858
MTRAQV
METAR KAQV 290856Z AUTO 00000KT 7SM CLR 23/22 A2992 RMK AO2 SLP128
6//// T02280222 56008 PNO





000
SAUS44 KSHV 290856
MTRPOE
METAR KPOE 290855Z AUTO 00000KT 10SM CLR 24/23 A2993 RMK AO2 SLP134
T02390228 56009





000
SAUS44 KSHV 290855
MTRBKB
METAR KBKB 290854Z AUTO 00000KT 10SM SCT025 24/22 A2991 RMK AO2
SLP153 T02390222 56009





000
SAUS44 KSHV 290757
MTRAQV
METAR KAQV 290756Z AUTO 00000KT 7SM CLR 23/22 A2992 RMK AO2 SLP129
T02330222 PNO





000
SAUS44 KSHV 290756
MTRPOE
METAR KPOE 290755Z AUTO 00000KT 10SM CLR 24/23 A2993 RMK AO2 SLP134
T02390228





000
SAUS44 KSHV 290756
MTRBKB
METAR KBKB 290754Z AUTO 10SM CLR 24/22 A2991 RMK AO2 SLP153
T02390217 $





000
SAUS44 KSHV 290657
MTRAQV
METAR KAQV 290656Z AUTO 00000KT 7SM FEW034 23/23 A2994 RMK AO2
SLP134 T02330228 PNO





000
SAUS44 KSHV 290656
MTRPOE
METAR KPOE 290655Z AUTO 00000KT 10SM CLR 24/23 A2994 RMK AO2 SLP139
T02390228





000
SAUS44 KSHV 290655
MTRBKB
METAR KBKB 290654Z AUTO 10SM FEW032 24/22 A2992 RMK AO2 SLP158
T02390217 $





000
SAUS44 KSHV 290557
MTRAQV
METAR KAQV 290556Z AUTO 00000KT 10SM CLR 24/22 A2995 RMK AO2 SLP136
6//// T02390222 10294 20239 403220222 50002 PNO





000
SAUS44 KSHV 290556
MTRPOE
METAR KPOE 290555Z AUTO 00000KT 10SM CLR 24/23 A2995 RMK AO2 SLP143
T02390228 10289 20239 51003





000
SAUS44 KSHV 290555
MTRBKB
METAR KBKB 290554Z AUTO 10SM CLR 24/22 A2994 RMK AO2 SLP161
T02440217 10300 20239 403440222 50003 $





000
SAUS44 KSHV 290458
MTRAQV
METAR KAQV 290456Z AUTO 00000KT 9SM CLR 24/23 A2995 RMK AO2 SLP137
T02390228 PNO





000
SAUS44 KSHV 290456
MTRPOE
METAR KPOE 290455Z AUTO 00000KT 10SM CLR 24/23 A2995 RMK AO2 SLP143
T02390228 403280222





000
SAUS44 KSHV 290456
MTRBKB
METAR KBKB 290454Z AUTO 10SM CLR 24/22 A2994 RMK AO2 SLP162
T02440217





000
SAUS44 KSHV 290357
MTRAQV
METAR KAQV 290356Z AUTO 00000KT 10SM CLR 24/23 A2995 RMK AO2 SLP137
T02440228 PNO





000
SAUS44 KSHV 290356
MTRBKB
METAR KBKB 290354Z AUTO 10SM CLR 25/22 A2993 RMK AO2 SLP160
T02500222





000
SAUS44 KSHV 290356
MTRPOE
METAR KPOE 290355Z AUTO 00000KT 10SM CLR 25/23 A2995 RMK AO2 SLP143
T02500228





000
SAUS44 KSHV 290258
MTRAQV
METAR KAQV 290256Z AUTO 00000KT 10SM CLR 25/23 A2994 RMK AO2 SLP135
6//// T02500228 53016 PNO





000
SAUS44 KSHV 290257
MTRPOE
METAR KPOE 290255Z AUTO 00000KT 10SM CLR 26/22 A2994 RMK AO2 SLP140
T02560222 53013





000
SAUS44 KSHV 290255
MTRBKB
METAR KBKB 290254Z AUTO 00000KT 10SM CLR 26/22 A2993 RMK AO2 SLP159
T02560222 53015





000
SAUS44 KSHV 290158
MTRAQV
METAR KAQV 290156Z AUTO 00000KT 10SM CLR 26/22 A2991 RMK AO2 SLP126
T02610222 PNO





000
SAUS44 KSHV 290157
MTRPOE
METAR KPOE 290155Z AUTO 16003KT 10SM CLR 26/22 A2992 RMK AO2 SLP133
T02560222





000
SAUS44 KSHV 290155
MTRBKB
METAR KBKB 290154Z AUTO 00000KT 10SM CLR 26/23 A2990 RMK AO2 SLP150
T02610228





000
SAUS44 KSHV 290058
MTRAQV
METAR KAQV 290056Z AUTO 00000KT 10SM CLR 27/23 A2989 RMK AO2 SLP119
T02720228 PNO





000
SAUS44 KSHV 290057
MTRPOE
METAR KPOE 290055Z AUTO 18004KT 10SM CLR 27/22 A2990 RMK AO2 SLP126
T02720217





000
SAUS44 KSHV 290056
MTRBKB
METAR KBKB 290054Z AUTO 00000KT 10SM CLR 28/23 A2988 RMK AO2 SLP144
T02830228





000
SAUS44 KSHV 282359
MTRAQV
METAR KAQV 282356Z AUTO 17003KT 10SM CLR 29/22 A2989 RMK AO2 SLP119
6//// T02940222 10322 20261 58010 PNO





000
SAUS44 KSHV 282357
MTRPOE
METAR KPOE 282355Z AUTO 16005KT 10SM CLR 29/21 A2991 RMK AO2 SLP127
60014 T02890211 10328 20250 56011





000
SAUS44 KSHV 282355
MTRBKB
METAR KBKB 282354Z AUTO 00000KT 10SM CLR 30/23 A2988 RMK AO2 SLP144
60002 T03000228 10339 20256 56010





000
SAUS44 KSHV 282257
MTRAQV
METAR KAQV 282256Z AUTO VRB06KT 10SM CLR 31/22 A2990 RMK AO2 SLP123
T03110217 PNO





000
SAUS44 KSHV 282256
MTRPOE
METAR KPOE 282255Z AUTO 16007KT 10SM CLR 31/21 A2991 RMK AO2 SLP129
T03060211





000
SAUS44 KSHV 282255
MTRBKB
METAR KBKB 282254Z AUTO VRB04KT 10SM CLR 32/21 A2989 RMK AO2 SLP148
T03170211





000
SAUS44 KSHV 282157
MTRAQV
METAR KAQV 282156Z AUTO 20003KT 10SM BKN090 31/22 A2991 RMK AO2
SLP125 T03110222 PNO





000
SAUS44 KSHV 282156
MTRBKB
METAR KBKB 282154Z AUTO VRB03KT 10SM SCT110 32/23 A2990 RMK AO2
SLP149 T03220233





000
SAUS44 KSHV 282156
MTRPOE
METAR KPOE 282155Z AUTO 15006KT 10SM CLR 31/22 A2992 RMK AO2 SLP133
T03110217





000
SAUS44 KSHV 282058
MTRAQV
METAR KAQV 282056Z AUTO VRB04KT 10SM FEW095 31/23 A2992 RMK AO2
RAE18 SLP129 6//// T03060233 58016 PNO $





000
SAUS44 KSHV 282056
MTRPOE
METAR KPOE 282055Z AUTO 20006KT 10SM CLR 30/23 A2994 RMK AO2 SLP138
60014 T03000228 58012





000
SAUS44 KSHV 282055
MTRBKB
METAR KBKB 282054Z AUTO VRB03KT 10SM SCT110 32/23 A2991 RMK AO2
SLP154 60002 T03170233 58012





000
SAUS44 KSHV 282009
MTRAQV
SPECI KAQV 282008Z AUTO 19003KT 3SM -RA BR SCT042 SCT060 OVC090
26/24 A2995 RMK AO2 T02610244 PNO $





000
SAUS44 KSHV 282005
MTRAQV
SPECI KAQV 282004Z AUTO 19004KT 1 1/2SM RA BR SCT042 SCT060 OVC080
26/24 A2995 RMK AO2 P0000 T02610244





000
SAUS44 KSHV 281958
MTRAQV
METAR KAQV 281956Z AUTO VRB05KT 2SM +RA FEW035 BKN042 OVC075 27/24
A2995 RMK AO2 RAB51 SLP139 P0000 T02670239





000
SAUS44 KSHV 281956
MTRPOE
METAR KPOE 281955Z AUTO 15006G14KT 10SM SCT110 31/23 A2996 RMK AO2
RAE05 SLP143 P0000 T03060233





000
SAUS44 KSHV 281955
MTRBKB
METAR KBKB 281954Z AUTO VRB03KT 10SM FEW070 OVC100 27/24 A2994 RMK
AO2 RAB10E53 SLP163 P0002 T02670239





000
SAUS44 KSHV 281858
MTRAQV
METAR KAQV 281856Z AUTO VRB04KT 9SM FEW046 SCT085 OVC110 32/22 A2996
RMK AO2 SLP142 T03170217





000
SAUS44 KSHV 281856
MTRBKB
METAR KBKB 281854Z AUTO 20008G14KT 10SM FEW034 BKN045 BKN050 31/22
A2995 RMK AO2 SLP167 T03060217





000
SAUS44 KSHV 281856
MTRPOE
METAR KPOE 281855Z AUTO 20006G15KT 5SM -RA BR SCT039 BKN049 OVC075
26/23 A2999 RMK AO2 PK WND 20026/1826 WSHFT 1821 RAB40 SLP157 P0014
T02560233





000
SAUS44 KSHV 281842
MTRPOE
SPECI KPOE 281841Z AUTO 17012G22KT 7SM -RA BKN041 BKN060 26/22 A3000
RMK AO2 PK WND 20026/1826 WSHFT 1821 RAB40 P0002





000
SAUS44 KSHV 281757
MTRAQV
METAR KAQV 281756Z AUTO 06003KT 10SM SCT035 SCT041 BKN110 32/23
A2997 RMK AO2 SLP145 T03220228 10322 20222 58006





000
SAUS44 KSHV 281756
MTRPOE
METAR KPOE 281755Z AUTO 11008KT 080V140 10SM FEW041 SCT110 33/21
A2997 RMK AO2 SLP149 T03280211 10328 20228 58007





000
SAUS44 KSHV 281755
MTRBKB
METAR KBKB 281754Z AUTO VRB05KT 10SM FEW043 BKN110 33/21 A2995 RMK
AO2 SLP165 T03330211 10344 20222 58008





000
SAUS44 KSHV 281659
MTRAQV
METAR KAQV 281656Z AUTO VRB04KT 10SM OVC110 31/23 A2998 RMK AO2
SLP149 T03110228





000
SAUS44 KSHV 281656
MTRPOE
METAR KPOE 281655Z AUTO 15007KT 10SM FEW035 BKN100 32/22 A2999 RMK
AO2 SLP154 T03170222





000
SAUS44 KSHV 281656
MTRBKB
METAR KBKB 281654Z AUTO VRB05KT 10SM BKN110 33/22 A2997 RMK AO2
SLP172 T03280217





000
SAUS44 KSHV 281557
MTRAQV
METAR KAQV 281556Z AUTO 00000KT 10SM OVC110 29/24 A3000 RMK AO2
SLP155 T02940239





000
SAUS44 KSHV 281556
MTRBKB
METAR KBKB 281554Z AUTO VRB03KT 10SM OVC110 32/22 A2998 RMK AO2
SLP176 T03220217





000
SAUS44 KSHV 281556
MTRPOE
METAR KPOE 281555Z AUTO 14007KT 10SM FEW100 31/22 A3000 RMK AO2
SLP160 T03060217





000
SAUS44 KSHV 281458
MTRAQV
METAR KAQV 281456Z AUTO 18003KT 9SM OVC110 27/24 A2999 RMK AO2
SLP152 T02720239 53009





000
SAUS44 KSHV 281457
MTRPOE
METAR KPOE 281455Z AUTO 12006KT 10SM CLR 29/23 A2999 RMK AO2 SLP156
T02890228 53008





000
SAUS44 KSHV 281455
MTRBKB
METAR KBKB 281454Z AUTO 00000KT 10SM SCT110 31/22 A2997 RMK AO2
SLP173 T03110222 53007





000
SAUS44 KSHV 281359
MTRAQV
METAR KAQV 281356Z AUTO 00000KT 10SM CLR 26/23 A2998 RMK AO2 SLP148
T02610233





000
SAUS44 KSHV 281357
MTRPOE
METAR KPOE 281355Z AUTO 12007KT 10SM CLR 27/23 A2998 RMK AO2 SLP153
T02670228





000
SAUS44 KSHV 281355
MTRBKB
METAR KBKB 281354Z AUTO 00000KT 10SM SCT110 29/23 A2996 RMK AO2
SLP170 T02890228





000
SAUS44 KSHV 281257
MTRAQV
METAR KAQV 281256Z AUTO 00000KT 10SM CLR 25/22 A2997 RMK AO2 SLP144
T02500222





000
SAUS44 KSHV 281256
MTRPOE
METAR KPOE 281255Z AUTO 09005KT 10SM CLR 24/22 A2997 RMK AO2 SLP150
T02440222





000
SAUS44 KSHV 281255
MTRBKB
METAR KBKB 281254Z AUTO 00000KT 10SM FEW110 25/22 A2996 RMK AO2
SLP169 T02500222





000
SAUS44 KSHV 281225
MTRBKB
SPECI KBKB 281224Z AUTO 00000KT 4SM BR FEW110 23/21 A2995 RMK AO2
T02280211





000
SAUS44 KSHV 281158
MTRAQV
METAR KAQV 281156Z AUTO 00000KT 3SM BR CLR 22/21 A2996 RMK AO2
SLP143 T02220211 10239 20222 53001





000
SAUS44 KSHV 281156
MTRPOE
METAR KPOE 281155Z AUTO 00000KT 10SM SCT110 23/22 A2997 RMK AO2
SLP148 T02280217 10244 20222 53001





000
SAUS44 KSHV 281156
MTRBKB
METAR KBKB 281154Z AUTO 00000KT 2 1/2SM BR CLR 22/21 A2995 RMK AO2
SLP167 T02220206 10239 20222 53001





000
SAUS44 KSHV 281058
MTRAQV
METAR KAQV 281056Z AUTO 00000KT 5SM BR CLR 22/21 A2996 RMK AO2
SLP143 T02220211





000
SAUS44 KSHV 281056
MTRPOE
METAR KPOE 281055Z AUTO 00000KT 10SM FEW110 23/22 A2997 RMK AO2
SLP147 T02280217





000
SAUS44 KSHV 281056
MTRBKB
METAR KBKB 281054Z AUTO 00000KT 3SM BR CLR 22/21 A2995 RMK AO2
SLP167 T02220206





000
SAUS44 KSHV 280958
MTRAQV
METAR KAQV 280956Z AUTO 00000KT 5SM BR CLR 23/22 A2996 RMK AO2
SLP140 T02280217





000
SAUS44 KSHV 280956
MTRPOE
METAR KPOE 280955Z AUTO 00000KT 10SM CLR 23/22 A2996 RMK AO2 SLP146
T02280217





000
SAUS44 KSHV 280956
MTRBKB
METAR KBKB 280954Z AUTO 00000KT 4SM BR CLR 23/21 A2994 RMK AO2
SLP165 T02280211





000
SAUS44 KSHV 280857
MTRAQV
METAR KAQV 280856Z AUTO 00000KT 5SM BR CLR 23/22 A2996 RMK AO2
SLP141 T02280217 58010





000
SAUS44 KSHV 280856
MTRPOE
METAR KPOE 280855Z AUTO 00000KT 10SM CLR 23/22 A2996 RMK AO2 SLP147
T02330217 58010





000
SAUS44 KSHV 280855
MTRBKB
METAR KBKB 280854Z AUTO 00000KT 4SM BR CLR 23/21 A2995 RMK AO2
SLP166 T02280211 58009





000
SAUS44 KSHV 280758
MTRAQV
METAR KAQV 280756Z AUTO 00000KT 6SM BR CLR 23/22 A2998 RMK AO2
SLP147 T02280222





000
SAUS44 KSHV 280756
MTRPOE
METAR KPOE 280755Z AUTO 00000KT 10SM CLR 23/22 A2998 RMK AO2 SLP151
T02330217





000
SAUS44 KSHV 280755
MTRBKB
METAR KBKB 280754Z AUTO 00000KT 5SM BR CLR 23/22 A2996 RMK AO2
SLP169 T02330217





000
SAUS44 KSHV 280657
MTRAQV
METAR KAQV 280656Z AUTO 00000KT 6SM BR CLR 23/22 A2998 RMK AO2
SLP149 T02330222





000
SAUS44 KSHV 280656
MTRPOE
METAR KPOE 280655Z AUTO 00000KT 10SM CLR 23/22 A2999 RMK AO2 SLP155
T02330222





000
SAUS44 KSHV 280656
MTRBKB
METAR KBKB 280654Z AUTO 00000KT 6SM BR CLR 24/22 A2997 RMK AO2
SLP172 T02390217





000
SAUS44 KSHV 280559
MTRAQV
METAR KAQV 280556Z AUTO 00000KT 9SM CLR 24/23 A2999 RMK AO2 SLP152
T02390228 10311 20239 403390206 50001





000
SAUS44 KSHV 280556
MTRBKB
METAR KBKB 280554Z AUTO 00000KT 9SM CLR 24/22 A2998 RMK AO2 SLP175
T02390222 10311 20239 403560217 50002





000
SAUS44 KSHV 280556
MTRPOE
METAR KPOE 280555Z AUTO 00000KT 10SM CLR 24/22 A3000 RMK AO2 SLP157
T02440222 10300 20244 50001





000
SAUS44 KSHV 280457
MTRAQV
METAR KAQV 280456Z AUTO 00000KT 9SM CLR 24/23 A3000 RMK AO2 SLP154
T02390228





000
SAUS44 KSHV 280456
MTRBKB
METAR KBKB 280454Z AUTO 00000KT 10SM CLR 25/22 A2998 RMK AO2 SLP176
T02500222





000
SAUS44 KSHV 280456
MTRPOE
METAR KPOE 280455Z AUTO 00000KT 10SM CLR 26/22 A3000 RMK AO2 SLP160
T02560222 403390222





000
SAUS44 KSHV 280357
MTRPOE
METAR KPOE 280355Z AUTO 00000KT 10SM CLR 26/22 A3000 RMK AO2 SLP159
T02560222





000
SAUS44 KSHV 280357
MTRAQV
METAR KAQV 280356Z AUTO 00000KT 10SM FEW047 25/23 A2999 RMK AO2
SLP152 T02500233





000
SAUS44 KSHV 280356
MTRBKB
METAR KBKB 280354Z AUTO 00000KT 10SM CLR 26/22 A2998 RMK AO2 SLP176
T02560222





000
SAUS44 KSHV 280257
MTRAQV
METAR KAQV 280256Z AUTO 00000KT 10SM CLR 26/24 A2999 RMK AO2 SLP150
T02560239 53007





000
SAUS44 KSHV 280256
MTRPOE
METAR KPOE 280255Z AUTO 00000KT 10SM FEW055 26/23 A2999 RMK AO2
SLP156 T02610228 53006





000
SAUS44 KSHV 280255
MTRBKB
METAR KBKB 280254Z AUTO 00000KT 10SM CLR 26/23 A2997 RMK AO2 SLP173
T02610228 53007





000
SAUS44 KSHV 280158
MTRAQV
METAR KAQV 280156Z AUTO 00000KT 10SM CLR 26/23 A2997 RMK AO2 SLP145
T02610233





000
SAUS44 KSHV 280156
MTRPOE
METAR KPOE 280155Z AUTO 00000KT 10SM CLR 27/22 A2998 RMK AO2 SLP150
T02720222





000
SAUS44 KSHV 280155
MTRBKB
METAR KBKB 280154Z AUTO 00000KT 10SM CLR 27/23 A2995 RMK AO2 SLP168
T02670228





000
SAUS44 KSHV 280057
MTRAQV
METAR KAQV 280056Z AUTO 00000KT 10SM SCT080 28/23 A2996 RMK AO2
SLP143 T02780233





000
SAUS44 KSHV 280057
MTRPOE
METAR KPOE 280055Z AUTO 00000KT 10SM OVC100 29/22 A2997 RMK AO2
SLP148 T02890217





000
SAUS44 KSHV 280055
MTRBKB
METAR KBKB 280054Z AUTO 00000KT 10SM FEW080 BKN100 28/23 A2995 RMK
AO2 SLP166 T02830233





000
SAUS44 KSHV 272357
MTRPOE
METAR KPOE 272355Z AUTO 11005KT 10SM BKN100 BKN110 30/22 A2997 RMK
AO2 SLP149 T03000217 10339 20300 55000





000
SAUS44 KSHV 272357
MTRAQV
METAR KAQV 272356Z AUTO 00000KT 10SM CLR 31/22 A2996 RMK AO2 SLP143
T03110217 10339 20311 55003





000
SAUS44 KSHV 272355
MTRBKB
METAR KBKB 272354Z AUTO 00000KT 10SM FEW110 31/22 A2995 RMK AO2
SLP166 T03110222 10356 20311 53000





000
SAUS44 KSHV 272257
MTRAQV
METAR KAQV 272256Z AUTO VRB03KT 10SM FEW100 33/21 A2996 RMK AO2
SLP141 T03330211





000
SAUS44 KSHV 272256
MTRBKB
METAR KBKB 272254Z AUTO 00000KT 10SM FEW065 SCT080 OVC100 32/22
A2995 RMK AO2 SLP165 T03220217





000
SAUS44 KSHV 272256
MTRPOE
METAR KPOE 272255Z AUTO 12006KT 10SM FEW055 SCT100 31/21 A2997 RMK
AO2 SLP147 T03110211





000
SAUS44 KSHV 272157
MTRAQV
METAR KAQV 272156Z AUTO 03003KT 10SM FEW050 32/21 A2997 RMK AO2
SLP143 T03220206





000
SAUS44 KSHV 272156
MTRBKB
METAR KBKB 272154Z AUTO VRB03KT 10SM SCT055 BKN070 OVC090 33/20
A2995 RMK AO2 SLP166 T03280200





000
SAUS44 KSHV 272156
MTRPOE
METAR KPOE 272155Z AUTO 05005KT 10SM SCT045 BKN070 BKN085 32/21
A2997 RMK AO2 SLP148 T03170211





000
SAUS44 KSHV 272058
MTRAQV
METAR KAQV 272056Z AUTO 04004KT 10SM FEW050 SCT070 33/21 A2997 RMK
AO2 SLP146 T03330206 56019





000
SAUS44 KSHV 272057
MTRPOE
METAR KPOE 272055Z AUTO 14010KT 110V180 10SM BKN050 BKN065 33/21
A2997 RMK AO2 SLP149 T03280206 56020





000
SAUS44 KSHV 272055
MTRBKB
METAR KBKB 272054Z AUTO VRB05KT 10SM SCT048 SCT060 BKN090 33/20
A2995 RMK AO2 SLP166 T03330200 58020





000
SAUS44 KSHV 271957
MTRAQV
METAR KAQV 271956Z AUTO 00000KT 10SM FEW048 BKN085 33/20 A2999 RMK
AO2 SLP152 T03330200





000
SAUS44 KSHV 271956
MTRBKB
METAR KBKB 271954Z AUTO VRB05KT 10SM FEW046 34/20 A2997 RMK AO2
SLP172 T03440200





000
SAUS44 KSHV 271956
MTRPOE
METAR KPOE 271955Z AUTO 11008KT 10SM BKN095 34/21 A2999 RMK AO2
SLP155 T03390206





000
SAUS44 KSHV 271858
MTRAQV
METAR KAQV 271856Z AUTO VRB04KT 10SM FEW047 SCT060 SCT080 32/20
A3001 RMK AO2 SLP159 T03220200





000
SAUS44 KSHV 271856
MTRPOE
METAR KPOE 271855Z AUTO 09008KT 10SM FEW047 BKN090 32/21 A3001 RMK
AO2 SLP163 T03220206





000
SAUS44 KSHV 271855
MTRBKB
METAR KBKB 271854Z AUTO VRB03KT 10SM SCT048 BKN095 33/21 A2999 RMK
AO2 SLP181 T03330206





000
SAUS44 KSHV 271757
MTRAQV
METAR KAQV 271756Z AUTO VRB06KT 10SM FEW045 SCT090 32/21 A3003 RMK
AO2 SLP165 T03220206 10328 20211 58002





000
SAUS44 KSHV 271756
MTRPOE
METAR KPOE 271755Z AUTO 08005KT 10SM SCT047 32/20 A3003 RMK AO2
SLP169 T03170200 10328 20228 58001





000
SAUS44 KSHV 271755
MTRBKB
METAR KBKB 271754Z AUTO 10SM SCT047 SCT095 34/20 A3001 RMK AO2
SLP186 T03440200 10344 20233 58002





000
SAUS44 KSHV 271658
MTRAQV
METAR KAQV 271656Z AUTO 09006KT 10SM OVC080 31/20 A3005 RMK AO2
SLP171 T03110200





000
SAUS44 KSHV 271656
MTRPOE
METAR KPOE 271655Z AUTO 07009KT 10SM SCT050 BKN080 31/21 A3005 RMK
AO2 SLP176 T03110206





000
SAUS44 KSHV 271655
MTRBKB
METAR KBKB 271654Z AUTO 06005KT 10SM OVC050 32/19 A3002 RMK AO2
SLP192 T03220194





000
SAUS44 KSHV 271558
MTRAQV
METAR KAQV 271556Z AUTO VRB03KT 10SM SCT060 SCT080 31/20 A3005 RMK
AO2 SLP171 T03110200





000
SAUS44 KSHV 271556
MTRPOE
METAR KPOE 271555Z AUTO 08007KT 10SM FEW080 BKN090 31/20 A3005 RMK
AO2 SLP176 T03060200





000
SAUS44 KSHV 271555
MTRBKB
METAR KBKB 271554Z AUTO VRB04KT 10SM SCT085 32/21 A3003 RMK AO2
SLP192 T03220206





000
SAUS44 KSHV 271500 COR
MTRAQV
METAR KAQV 271456Z AUTO 03005KT 10SM CLR 28/20 A3003 RMK AO2 SLP167
T02830200 51008





000
SAUS44 KSHV 271457
MTRAQV
METAR KAQV 271456Z AUTO 03005KT 10SM CLR 28/20 A3003 RMK AO2 SLP167
T02830200 51008





000
SAUS44 KSHV 271456
MTRPOE
METAR KPOE 271455Z AUTO 07004KT 10SM FEW055 BKN075 29/20 A3004 RMK
AO2 SLP171 T02890200 51008





000
SAUS44 KSHV 271455
MTRBKB
METAR KBKB 271454Z AUTO 00000KT 10SM BKN080 29/20 A3001 RMK AO2
SLP188 T02890200 51006





000
SAUS44 KSHV 271357
MTRAQV
METAR KAQV 271356Z AUTO 08003KT 10SM BKN050 BKN075 27/19 A3003 RMK
AO2 SLP165 T02670194





000
SAUS44 KSHV 271356
MTRPOE
METAR KPOE 271355Z AUTO 06005KT 10SM CLR 26/19 A3003 RMK AO2 SLP168
T02610194





000
SAUS44 KSHV 271355
MTRBKB
METAR KBKB 271354Z AUTO 00000KT 10SM SCT085 27/19 A3001 RMK AO2
SLP186 T02670194





000
SAUS44 KSHV 271257
MTRAQV
METAR KAQV 271256Z AUTO 05004KT 10SM BKN070 24/19 A3002 RMK AO2
SLP163 T02440194





000
SAUS44 KSHV 271257
MTRPOE
METAR KPOE 271255Z AUTO 07005KT 10SM SCT080 24/19 A3002 RMK AO2
SLP166 T02390189





000
SAUS44 KSHV 271255
MTRBKB
METAR KBKB 271254Z AUTO VRB04KT 10SM FEW049 24/19 A3001 RMK AO2
SLP186 T02390189





000
SAUS44 KSHV 271157
MTRAQV
METAR KAQV 271156Z AUTO 00000KT 4SM BR FEW070 21/19 A3001 RMK AO2
SLP158 T02110194 10233 20206 53006





000
SAUS44 KSHV 271156
MTRPOE
METAR KPOE 271155Z AUTO 06004KT 10SM OVC075 23/19 A3001 RMK AO2
SLP163 7//// T02280189 10244 20222 53007





000
SAUS44 KSHV 271156
MTRBKB
METAR KBKB 271154Z AUTO VRB03KT 10SM OVC080 23/19 A2999 RMK AO2
SLP182 7//// T02330189 10233 20217 53007





000
SAUS44 KSHV 271057
MTRAQV
METAR KAQV 271056Z AUTO 00000KT 10SM CLR 21/19 A2999 RMK AO2 SLP153
T02110194





000
SAUS44 KSHV 271057
MTRPOE
METAR KPOE 271055Z AUTO 04005KT 10SM BKN070 23/19 A2999 RMK AO2
SLP156 T02280189





000
SAUS44 KSHV 271055
MTRBKB
METAR KBKB 271054Z AUTO 00000KT 10SM BKN075 23/19 A2998 RMK AO2
SLP176 T02280194





    US Dept of Commerce
    National Oceanic and Atmospheric Administration
    National Weather Service
    1325 East West Highway
    Silver Spring, MD 20910
    Page Author: NWS Internet Services Team
Disclaimer
Information Quality
Credits
Glossary
Privacy Policy
Freedom of Information Act (FOIA)
About Us
Career Opportunities